Time;durP1;ratioP1;P1;durP2;ratioP2;P2;SDS_P1;SDS_P2;PMS_P1;PMS_P2;Temp;Humidity;BMP_temperature;BMP_pressure;BME280_temperature;BME280_humidity;BME280_pressure;Samples;Min_cycle;Max_cycle;Signal;HPM_P1;HPM_P2
2021/08/13 00:01:44;;;;;;;6.72;5.82;;;;;;;15.42;nan;102128.28;6267246;22;20432;-51
2021/08/13 00:04:10;;;;;;;9.50;6.75;;;;;;;15.42;nan;102133.69;6266886;22;20019;-52
2021/08/13 00:06:40;;;;;;;8.45;6.55;;;;;;;15.36;nan;102134.69;6239739;22;20330;-49
2021/08/13 00:09:09;;;;;;;8.55;6.00;;;;;;;15.31;nan;102129.19;6267120;22;20003;-51
2021/08/13 00:11:39;;;;;;;8.70;5.85;;;;;;;15.27;nan;102130.75;6239613;22;20110;-49
2021/08/13 00:14:07;;;;;;;8.45;6.13;;;;;;;15.22;nan;102132.53;6269110;22;20011;-49
2021/08/13 00:16:33;;;;;;;9.43;6.78;;;;;;;15.16;nan;102125.44;6270868;22;20019;-48
2021/08/13 00:18:58;;;;;;;12.02;6.72;;;;;;;15.10;nan;102130.75;6270560;22;20072;-49
2021/08/13 00:21:23;;;;;;;11.57;7.10;;;;;;;15.10;nan;102129.94;6270417;22;20609;-48
2021/08/13 00:23:49;;;;;;;14.10;7.82;;;;;;;15.05;nan;102129.84;6270521;22;20007;-50
2021/08/13 00:26:14;;;;;;;12.70;7.03;;;;;;;15.01;nan;102128.69;6269263;22;20012;-49
2021/08/13 00:28:40;;;;;;;10.30;7.07;;;;;;;14.97;nan;102128.38;6270164;22;20332;-51
2021/08/13 00:31:05;;;;;;;10.23;7.93;;;;;;;14.94;nan;102128.03;6270452;22;20003;-48
2021/08/13 00:33:31;;;;;;;15.32;7.55;;;;;;;14.89;nan;102127.94;6270285;22;20003;-51
2021/08/13 00:35:56;;;;;;;8.52;6.57;;;;;;;14.82;nan;102128.09;6270878;22;20012;-49
2021/08/13 00:38:22;;;;;;;10.07;6.93;;;;;;;14.75;nan;102130.94;6270363;22;20375;-50
2021/08/13 00:40:48;;;;;;;10.05;7.20;;;;;;;14.77;nan;102123.44;6269576;22;20390;-48
2021/08/13 00:43:13;;;;;;;11.82;7.13;;;;;;;14.80;nan;102125.63;6269119;22;20007;-50
2021/08/13 00:45:39;;;;;;;9.15;6.90;;;;;;;14.85;nan;102129.47;6242739;22;20068;-49
2021/08/13 00:48:05;;;;;;;10.07;6.50;;;;;;;14.82;nan;102131.59;6270406;22;20007;-49
2021/08/13 00:50:30;;;;;;;12.05;7.32;;;;;;;14.87;nan;102127.34;6242915;22;20015;-49
2021/08/13 00:52:56;;;;;;;10.90;7.22;;;;;;;14.85;nan;102137.56;6270091;22;20436;-48
2021/08/13 00:55:22;;;;;;;10.85;7.93;;;;;;;14.89;nan;102130.63;6270156;22;19999;-50
2021/08/13 00:57:48;;;;;;;9.48;7.57;;;;;;;14.90;nan;102127.72;6269689;22;20008;-48
2021/08/13 01:00:14;;;;;;;13.05;7.78;;;;;;;14.89;nan;102130.63;6242787;22;20034;-51
2021/08/13 01:02:39;;;;;;;9.13;6.45;;;;;;;14.88;nan;102131.69;6271103;22;20011;-48
2021/08/13 01:05:05;;;;;;;10.23;7.03;;;;;;;14.84;nan;102133.25;6270453;22;20007;-48
2021/08/13 01:07:30;;;;;;;11.70;7.72;;;;;;;14.68;nan;102134.84;6269716;22;20035;-50
2021/08/13 01:09:56;;;;;;;15.05;8.00;;;;;;;14.72;nan;102136.84;6270245;22;20095;-49
2021/08/13 01:12:51;;;;;;;8.73;7.32;;;;;;;14.74;nan;102134.72;6268159;22;20018;-49
2021/08/13 01:15:18;;;;;;;11.85;7.60;;;;;;;14.82;nan;102128.91;6261970;22;20011;-50
2021/08/13 01:17:57;;;;;;;12.27;7.00;;;;;;;14.80;nan;102128.34;6269739;22;20103;-49
2021/08/13 01:20:25;;;;;;;10.32;7.65;;;;;;;14.85;nan;102126.78;6270160;22;20344;-49
2021/08/13 01:23:05;;;;;;;9.90;7.00;;;;;;;14.81;nan;102121.88;6270325;22;20259;-49
2021/08/13 01:25:34;;;;;;;10.38;7.40;;;;;;;14.85;nan;102126.78;6268700;22;20567;-49
2021/08/13 01:28:12;;;;;;;12.98;7.05;;;;;;;14.78;nan;102119.66;6268825;22;20074;-49
2021/08/13 01:30:39;;;;;;;11.57;7.38;;;;;;;14.77;nan;102119.91;6268470;22;20137;-48
2021/08/13 01:33:11;;;;;;;9.70;6.90;;;;;;;14.70;nan;102117.34;6267676;22;20497;-51
2021/08/13 01:35:42;;;;;;;11.80;8.20;;;;;;;14.63;nan;102119.38;6240956;22;20007;-48
2021/08/13 01:38:11;;;;;;;10.85;7.28;;;;;;;14.58;nan;102123.88;6268127;22;20007;-49
2021/08/13 01:40:40;;;;;;;9.45;7.30;;;;;;;14.51;nan;102124.81;6241470;22;20035;-48
2021/08/13 01:43:08;;;;;;;12.27;7.80;;;;;;;14.50;nan;102117.78;6268331;22;20019;-48
2021/08/13 01:45:35;;;;;;;10.20;7.10;;;;;;;14.50;nan;102116.97;6241690;22;20043;-49
2021/08/13 01:48:04;;;;;;;9.93;6.10;;;;;;;14.48;nan;102119.91;6267413;22;20003;-48
2021/08/13 01:50:30;;;;;;;11.20;7.10;;;;;;;14.46;nan;102121.22;6268374;22;20007;-50
2021/08/13 01:52:57;;;;;;;9.60;6.30;;;;;;;14.44;nan;102126.03;6268453;22;20011;-52
2021/08/13 01:55:24;;;;;;;12.02;7.43;;;;;;;14.45;nan;102124.97;6268024;22;20010;-50
2021/08/13 01:57:49;;;;;;;11.23;7.43;;;;;;;14.46;nan;102127.44;6267024;22;20394;-51
2021/08/13 02:00:17;;;;;;;11.00;7.47;;;;;;;14.46;nan;102126.63;6268339;22;20007;-50
2021/08/13 02:02:44;;;;;;;15.38;8.10;;;;;;;14.45;nan;102124.97;6268172;22;19999;-49
2021/08/13 02:05:10;;;;;;;13.90;8.77;;;;;;;14.42;nan;102120.84;6268131;22;20034;-49
2021/08/13 02:07:40;;;;;;;10.82;7.80;;;;;;;14.40;nan;102124.84;6267558;22;20100;-48
2021/08/13 02:10:07;;;;;;;12.00;7.43;;;;;;;14.39;nan;102117.81;6267970;22;20015;-51
2021/08/13 02:12:34;;;;;;;10.48;7.47;;;;;;;14.38;nan;102118.88;6240587;22;20014;-49
2021/08/13 02:15:00;;;;;;;11.95;7.20;;;;;;;14.35;nan;102111.25;6268490;22;20008;-48
2021/08/13 02:17:29;;;;;;;13.25;7.65;;;;;;;14.36;nan;102110.19;6267169;22;20015;-49
2021/08/13 02:20:07;;;;;;;9.68;7.18;;;;;;;14.37;nan;102111.84;6268183;22;20518;-51
2021/08/13 02:22:33;;;;;;;11.32;7.32;;;;;;;14.37;nan;102107.28;6268089;22;20007;-51
2021/08/13 02:24:58;;;;;;;11.35;7.25;;;;;;;14.39;nan;102117.81;6268397;22;20007;-50
2021/08/13 02:27:26;;;;;;;7.78;6.00;;;;;;;14.47;nan;102106.69;6267261;22;20087;-49
2021/08/13 02:29:53;;;;;;;9.65;7.40;;;;;;;14.52;nan;102107.56;6268168;22;20039;-48
2021/08/13 02:32:18;;;;;;;7.20;6.47;;;;;;;14.59;nan;102099.34;6267625;22;20502;-49
2021/08/13 02:34:44;;;;;;;8.93;6.43;;;;;;;14.63;nan;102094.28;6241007;22;20004;-49
2021/08/13 02:37:30;;;;;;;11.52;6.85;;;;;;;14.65;nan;102093.00;6267551;22;20344;-51
2021/08/13 02:40:07;;;;;;;12.63;7.00;;;;;;;14.71;nan;102091.19;6267364;22;19996;-51
2021/08/13 02:42:46;;;;;;;10.80;6.85;;;;;;;14.76;nan;102096.69;6266820;22;20034;-49
2021/08/13 02:45:16;;;;;;;8.50;6.75;;;;;;;14.75;nan;102093.19;6268542;22;20351;-49
2021/08/13 02:47:43;;;;;;;12.45;6.78;;;;;;;14.81;nan;102102.19;6267854;22;20267;-49
2021/08/13 02:50:11;;;;;;;7.75;6.45;;;;;;;14.80;nan;102101.34;6267728;22;20003;-48
2021/08/13 02:52:46;;;;;;;8.38;6.90;;;;;;;14.77;nan;102107.25;6267938;22;20333;-51
2021/08/13 02:55:19;;;;;;;9.50;6.65;;;;;;;14.69;nan;102099.53;6267644;22;20530;-48
2021/08/13 02:57:52;;;;;;;10.93;7.40;;;;;;;14.68;nan;102105.97;6266154;22;20141;-50
2021/08/13 03:00:19;;;;;;;10.30;6.90;;;;;;;14.77;nan;102107.25;6215665;22;19995;-52
2021/08/13 03:02:50;;;;;;;9.38;7.35;;;;;;;14.77;nan;102104.53;6268274;22;20068;-49
2021/08/13 03:05:21;;;;;;;9.73;7.03;;;;;;;14.78;nan;102103.47;6267257;22;20432;-49
2021/08/13 03:07:47;;;;;;;7.97;6.28;;;;;;;14.79;nan;102105.13;6267390;22;20003;-52
2021/08/13 03:10:13;;;;;;;10.35;7.15;;;;;;;14.77;nan;102099.16;6267394;22;20014;-49
2021/08/13 03:12:40;;;;;;;11.63;7.28;;;;;;;14.77;nan;102091.06;6266945;22;20008;-50
2021/08/13 03:15:06;;;;;;;10.65;6.50;;;;;;;14.75;nan;102098.56;6268875;22;20100;-47
2021/08/13 03:17:33;;;;;;;10.00;6.75;;;;;;;14.70;nan;102100.34;6267267;22;20403;-49
2021/08/13 03:20:00;;;;;;;9.30;6.50;;;;;;;14.62;nan;102101.56;6267549;22;19995;-49
2021/08/13 03:22:27;;;;;;;8.15;6.20;;;;;;;14.58;nan;102096.91;6268202;22;20074;-49
2021/08/13 03:24:52;;;;;;;9.48;6.70;;;;;;;14.58;nan;102097.72;6240228;22;20343;-49
2021/08/13 03:27:18;;;;;;;7.70;6.22;;;;;;;14.62;nan;102098.06;6266159;22;20004;-50
2021/08/13 03:29:45;;;;;;;7.82;5.88;;;;;;;14.63;nan;102095.13;6268012;22;20003;-49
2021/08/13 03:32:10;;;;;;;7.97;6.40;;;;;;;14.62;nan;102093.47;6267839;22;20004;-51
2021/08/13 03:34:36;;;;;;;12.18;6.13;;;;;;;14.61;nan;102094.53;6266999;22;20061;-51
2021/08/13 03:37:02;;;;;;;12.30;7.03;;;;;;;14.58;nan;102095.03;6266246;22;20060;-49
2021/08/13 03:39:27;;;;;;;11.07;7.03;;;;;;;14.65;nan;102092.16;6267396;22;20006;-48
2021/08/13 03:41:54;;;;;;;8.38;6.40;;;;;;;14.63;nan;102094.28;6267707;22;20012;-50
2021/08/13 03:44:19;;;;;;;9.98;7.28;;;;;;;14.66;nan;102097.31;6267554;22;19999;-51
2021/08/13 03:46:45;;;;;;;9.60;7.03;;;;;;;14.64;nan;102091.34;6267388;22;20030;-49
2021/08/13 03:49:11;;;;;;;9.00;6.53;;;;;;;14.69;nan;102094.13;6265816;22;20286;-50
2021/08/13 03:51:36;;;;;;;9.02;6.63;;;;;;;14.72;nan;102093.66;6266880;22;20017;-49
2021/08/13 03:54:02;;;;;;;13.40;6.38;;;;;;;14.70;nan;102090.38;6267505;22;20133;-49
2021/08/13 03:56:27;;;;;;;7.88;6.20;;;;;;;14.68;nan;102089.78;6266461;22;20366;-49
2021/08/13 03:58:53;;;;;;;9.10;6.28;;;;;;;14.73;nan;102089.09;6266924;22;19999;-50
2021/08/13 04:01:18;;;;;;;9.35;6.45;;;;;;;14.78;nan;102092.69;6267202;22;20010;-52
2021/08/13 04:03:44;;;;;;;9.07;6.30;;;;;;;14.85;nan;102087.13;6266248;22;20021;-49
2021/08/13 04:06:09;;;;;;;9.10;6.22;;;;;;;14.94;nan;102087.56;6266647;22;20079;-49
2021/08/13 04:08:35;;;;;;;8.20;7.15;;;;;;;14.99;nan;102088.44;6266647;22;20653;-49
2021/08/13 04:11:00;;;;;;;10.55;8.02;;;;;;;15.05;nan;102097.44;6267144;22;20053;-49
2021/08/13 04:13:26;;;;;;;9.85;6.68;;;;;;;15.12;nan;102095.41;6267467;22;20011;-49
2021/08/13 04:15:51;;;;;;;12.95;6.63;;;;;;;15.21;nan;102096.63;6267140;22;20021;-48
2021/08/13 04:18:17;;;;;;;10.13;6.78;;;;;;;15.35;nan;102097.13;6265467;22;20344;-51
2021/08/13 04:20:43;;;;;;;11.30;7.15;;;;;;;15.46;nan;102100.81;6267213;22;20000;-49
2021/08/13 04:23:08;;;;;;;10.68;7.07;;;;;;;15.62;nan;102097.28;6267283;22;20074;-49
2021/08/13 04:25:34;;;;;;;9.05;6.43;;;;;;;15.77;nan;102094.78;6266953;22;20014;-48
2021/08/13 04:27:59;;;;;;;10.52;6.78;;;;;;;15.90;nan;102099.81;6266385;22;20003;-49
2021/08/13 04:30:25;;;;;;;8.50;6.65;;;;;;;16.04;nan;102096.75;6266940;22;20015;-49
2021/08/13 04:32:51;;;;;;;11.30;6.85;;;;;;;16.18;nan;102093.41;6266077;22;20319;-48
2021/08/13 04:35:16;;;;;;;8.98;6.68;;;;;;;16.31;nan;102097.59;6239559;22;20007;-52
2021/08/13 04:37:42;;;;;;;11.90;7.60;;;;;;;16.40;nan;102098.78;6266889;22;19999;-51
2021/08/13 04:40:08;;;;;;;9.63;7.18;;;;;;;16.25;nan;102099.44;6266475;22;20335;-49
2021/08/13 04:42:33;;;;;;;7.10;6.13;;;;;;;16.29;nan;102100.56;6266489;22;20008;-50
2021/08/13 04:44:59;;;;;;;10.38;6.75;;;;;;;16.35;nan;102096.03;6266850;22;20339;-49
2021/08/13 04:47:24;;;;;;;9.00;6.78;;;;;;;16.58;nan;102092.22;6265860;22;20004;-52
2021/08/13 04:49:50;;;;;;;9.00;6.63;;;;;;;16.68;nan;102094.22;6266763;22;20003;-49
2021/08/13 04:52:18;;;;;;;10.75;6.90;;;;;;;16.80;nan;102097.59;6266514;22;20003;-50
2021/08/13 04:54:46;;;;;;;11.80;7.07;;;;;;;16.91;nan;102093.91;6263576;22;20043;-51
2021/08/13 04:57:12;;;;;;;9.27;7.13;;;;;;;16.99;nan;102096.13;6264994;22;20043;-51
2021/08/13 04:59:38;;;;;;;9.07;7.15;;;;;;;17.14;nan;102084.63;6266838;22;20228;-49
2021/08/13 05:02:03;;;;;;;9.57;7.22;;;;;;;17.20;nan;102097.94;6267649;22;20351;-49
2021/08/13 05:04:29;;;;;;;11.00;7.50;;;;;;;17.30;nan;102091.78;6266855;22;20007;-51
2021/08/13 05:06:54;;;;;;;12.55;7.22;;;;;;;17.47;nan;102089.72;6267919;22;20010;-50
2021/08/13 05:09:20;;;;;;;11.73;6.63;;;;;;;17.59;nan;102088.69;6268896;22;20120;-52
2021/08/13 05:11:45;;;;;;;8.25;6.25;;;;;;;17.72;nan;102082.84;6266396;22;20038;-51
2021/08/13 05:14:11;;;;;;;10.30;6.75;;;;;;;17.74;nan;102084.19;6238185;22;20004;-52
2021/08/13 05:16:36;;;;;;;10.50;7.40;;;;;;;17.71;nan;102081.22;6262852;22;20007;-51
2021/08/13 05:19:02;;;;;;;8.40;6.55;;;;;;;17.69;nan;102076.06;6264050;22;20019;-48
2021/08/13 05:21:27;;;;;;;10.95;6.95;;;;;;;17.69;nan;102083.38;6264949;22;20332;-49
2021/08/13 05:23:53;;;;;;;10.57;7.13;;;;;;;17.74;nan;102075.25;6263800;22;20007;-49
2021/08/13 05:26:18;;;;;;;9.18;7.07;;;;;;;17.81;nan;102076.66;6264165;22;20151;-51
2021/08/13 05:28:44;;;;;;;9.45;7.28;;;;;;;17.90;nan;102073.44;6265546;22;20377;-49
2021/08/13 05:31:09;;;;;;;9.60;6.75;;;;;;;18.02;nan;102071.31;6266024;22;20078;-52
2021/08/13 05:33:35;;;;;;;9.95;7.60;;;;;;;18.16;nan;102077.88;6265436;22;20015;-50
2021/08/13 05:36:00;;;;;;;10.82;6.93;;;;;;;18.26;nan;102075.19;6238763;22;20034;-49
2021/08/13 05:38:26;;;;;;;10.65;7.55;;;;;;;18.31;nan;102079.81;6264838;22;20127;-51
2021/08/13 05:40:51;;;;;;;13.02;7.18;;;;;;;18.46;nan;102089.88;6264311;22;20069;-50
2021/08/13 05:43:17;;;;;;;9.48;7.45;;;;;;;18.61;nan;102079.06;6265234;22;20010;-50
2021/08/13 05:45:43;;;;;;;14.05;7.13;;;;;;;18.64;nan;102078.53;6264259;22;20344;-49
2021/08/13 05:48:08;;;;;;;10.57;7.13;;;;;;;18.72;nan;102078.03;6263640;22;20316;-50
2021/08/13 05:50:34;;;;;;;10.23;6.68;;;;;;;18.85;nan;102082.94;6265026;22;20011;-52
2021/08/13 05:53:00;;;;;;;10.13;7.10;;;;;;;18.86;nan;102084.56;6238740;22;20012;-51
2021/08/13 05:55:25;;;;;;;9.40;6.32;;;;;;;19.05;nan;102089.44;6265280;22;20004;-50
2021/08/13 05:57:51;;;;;;;9.25;7.20;;;;;;;19.06;nan;102091.09;6265278;22;20008;-49
2021/08/13 06:00:16;;;;;;;8.52;6.15;;;;;;;19.12;nan;102079.94;6265743;22;20335;-52
2021/08/13 06:02:56;;;;;;;9.65;6.30;;;;;;;19.12;nan;102079.09;6265392;22;20008;-49
2021/08/13 06:05:22;;;;;;;9.27;6.50;;;;;;;19.19;nan;102085.06;6265499;22;20003;-50
2021/08/13 06:07:47;;;;;;;8.70;7.40;;;;;;;19.25;nan;102079.38;6264955;22;20004;-51
2021/08/13 06:10:13;;;;;;;11.13;7.25;;;;;;;19.26;nan;102085.63;6265009;22;20008;-50
2021/08/13 06:12:38;;;;;;;9.15;6.72;;;;;;;19.27;nan;102087.25;6264905;22;20471;-52
2021/08/13 06:15:05;;;;;;;9.63;6.82;;;;;;;19.38;nan;102083.41;6266083;22;20046;-49
2021/08/13 06:17:30;;;;;;;10.52;6.90;;;;;;;19.43;nan;102086.13;6265341;22;20023;-52
2021/08/13 06:19:56;;;;;;;7.07;5.50;;;;;;;19.33;nan;102078.00;6265607;22;20424;-52
2021/08/13 06:22:21;;;;;;;6.93;6.20;;;;;;;19.38;nan;102083.41;6265346;22;20022;-50
2021/08/13 06:24:47;;;;;;;8.73;6.70;;;;;;;19.27;nan;102082.63;6265356;22;20422;-52
2021/08/13 06:27:12;;;;;;;8.00;6.53;;;;;;;19.48;nan;102083.41;6265935;22;20378;-52
2021/08/13 06:29:38;;;;;;;7.55;6.32;;;;;;;19.59;nan;102087.78;6265239;22;20391;-50
2021/08/13 06:32:04;;;;;;;10.35;6.80;;;;;;;19.65;nan;102080.41;6264765;22;20004;-49
2021/08/13 06:34:29;;;;;;;9.07;6.72;;;;;;;19.60;nan;102083.97;6264915;22;20082;-52
2021/08/13 06:36:55;;;;;;;9.27;6.20;;;;;;;19.62;nan;102091.84;6236874;22;20091;-50
2021/08/13 06:39:21;;;;;;;9.88;6.30;;;;;;;19.69;nan;102091.53;6266425;22;20368;-49
2021/08/13 06:41:47;;;;;;;7.22;5.93;;;;;;;19.85;nan;102087.66;6265557;22;20444;-52
2021/08/13 06:44:14;;;;;;;8.90;6.40;;;;;;;19.91;nan;102089.28;6266432;22;20027;-52
2021/08/13 06:46:40;;;;;;;10.90;7.03;;;;;;;19.98;nan;102091.72;6265285;22;20011;-49
2021/08/13 06:49:05;;;;;;;8.18;6.57;;;;;;;20.04;nan;102096.84;6266075;22;20004;-52
2021/08/13 06:51:31;;;;;;;10.75;7.15;;;;;;;20.10;nan;102100.34;6266071;22;20011;-51
2021/08/13 06:53:56;;;;;;;8.82;7.20;;;;;;;20.09;nan;102106.88;6266291;22;20007;-51
2021/08/13 06:56:22;;;;;;;11.18;7.82;;;;;;;20.11;nan;102102.81;6267120;22;20019;-50
2021/08/13 06:58:47;;;;;;;7.97;7.15;;;;;;;20.19;nan;102096.78;6266031;22;20332;-51
2021/08/13 07:01:13;;;;;;;10.43;7.32;;;;;;;20.17;nan;102107.13;6266730;22;20035;-50
2021/08/13 07:03:39;;;;;;;9.50;7.85;;;;;;;20.32;nan;102108.97;6238834;22;20015;-49
2021/08/13 07:06:04;;;;;;;8.60;7.50;;;;;;;20.36;nan;102093.69;6265844;22;20011;-52
2021/08/13 07:08:29;;;;;;;10.35;7.68;;;;;;;20.32;nan;102094.53;6266087;22;20015;-52
2021/08/13 07:10:55;;;;;;;8.95;7.70;;;;;;;20.42;nan;102097.22;6266655;22;20035;-51
2021/08/13 07:13:21;;;;;;;10.73;7.10;;;;;;;20.42;nan;102098.03;6266306;22;20487;-49
2021/08/13 07:15:46;;;;;;;10.55;7.45;;;;;;;20.42;nan;102095.31;6266321;22;20203;-51
2021/08/13 07:18:12;;;;;;;9.57;7.60;;;;;;;20.41;nan;102096.41;6266497;22;20030;-52
2021/08/13 07:20:37;;;;;;;11.75;7.32;;;;;;;20.57;nan;102091.69;6265786;22;20404;-49
2021/08/13 07:23:03;;;;;;;10.30;7.38;;;;;;;20.77;nan;102096.97;6265380;22;20026;-52
2021/08/13 07:25:28;;;;;;;11.68;7.15;;;;;;;21.13;nan;102100.22;6266950;22;20007;-50
2021/08/13 07:27:54;;;;;;;9.82;6.70;;;;;;;21.51;nan;102102.34;6238732;22;20015;-50
2021/08/13 07:30:20;;;;;;;9.32;6.55;;;;;;;21.63;nan;102105.50;6265704;22;20011;-51
2021/08/13 07:32:46;;;;;;;9.02;6.50;;;;;;;21.89;nan;102101.38;6266427;22;20013;-52
2021/08/13 07:35:12;;;;;;;9.55;7.60;;;;;;;22.14;nan;102099.47;6266535;22;20004;-53
2021/08/13 07:37:38;;;;;;;8.65;7.53;;;;;;;22.33;nan;102088.56;6262428;22;20079;-50
2021/08/13 07:40:04;;;;;;;11.25;7.28;;;;;;;22.59;nan;102090.59;6266110;22;20388;-52
2021/08/13 07:42:30;;;;;;;11.98;7.60;;;;;;;22.84;nan;102086.72;6265041;22;20018;-52
2021/08/13 07:44:55;;;;;;;9.52;6.90;;;;;;;22.95;nan;102079.13;6265829;22;20007;-49
2021/08/13 07:47:21;;;;;;;7.38;6.55;;;;;;;22.94;nan;102082.19;6239228;22;20334;-49
2021/08/13 07:49:47;;;;;;;9.18;6.85;;;;;;;23.05;nan;102073.50;6265912;22;20491;-51
2021/08/13 07:52:12;;;;;;;10.13;7.63;;;;;;;23.20;nan;102084.19;6266697;22;20007;-52
2021/08/13 07:54:38;;;;;;;10.35;7.00;;;;;;;23.44;nan;102078.53;6266398;22;20011;-51
2021/08/13 07:57:04;;;;;;;7.57;6.60;;;;;;;23.57;nan;102085.16;6259981;22;20398;-49
2021/08/13 07:59:30;;;;;;;9.77;6.25;;;;;;;23.58;nan;102080.50;6265706;22;20058;-49
2021/08/13 08:01:55;;;;;;;9.85;6.85;;;;;;;23.74;nan;102082.63;6266679;22;20439;-52
2021/08/13 08:04:21;;;;;;;9.60;7.10;;;;;;;23.76;nan;102085.06;6266370;22;20008;-50
2021/08/13 08:06:46;;;;;;;8.85;6.65;;;;;;;23.63;nan;102092.16;6265386;22;20004;-52
2021/08/13 08:09:12;;;;;;;10.75;7.32;;;;;;;23.80;nan;102091.53;6239226;22;20011;-52
2021/08/13 08:11:37;;;;;;;9.18;6.35;;;;;;;23.66;nan;102088.00;6265292;22;20443;-49
2021/08/13 08:14:03;;;;;;;9.25;7.40;;;;;;;23.94;nan;102083.31;6265636;22;20314;-50
2021/08/13 08:16:29;;;;;;;11.00;7.13;;;;;;;24.13;nan;102074.97;6265484;22;20424;-49
2021/08/13 08:18:54;;;;;;;10.13;6.65;;;;;;;24.11;nan;102083.50;6266647;22;20015;-50
2021/08/13 08:21:20;;;;;;;8.25;7.07;;;;;;;24.37;nan;102084.56;6266067;22;20000;-51
2021/08/13 08:23:46;;;;;;;9.48;7.28;;;;;;;24.59;nan;102083.78;6265895;22;20004;-49
2021/08/13 08:26:11;;;;;;;8.15;7.35;;;;;;;24.83;nan;102086.25;6266580;22;20049;-49
2021/08/13 08:28:42;;;;;;;10.15;6.88;;;;;;;25.06;nan;102084.31;6264773;22;20444;-50
2021/08/13 08:31:08;;;;;;;12.18;6.70;;;;;;;25.31;nan;102085.56;6265483;22;20003;-49
2021/08/13 08:33:33;;;;;;;8.85;6.50;;;;;;;25.64;nan;102071.50;6265899;22;20246;-53
2021/08/13 08:35:59;;;;;;;7.53;6.65;;;;;;;25.92;nan;102075.66;6267691;22;20008;-49
2021/08/13 08:38:24;;;;;;;9.20;6.22;;;;;;;25.86;nan;102080.50;6267955;22;20008;-49
2021/08/13 08:40:50;;;;;;;9.43;6.75;;;;;;;26.11;nan;102078.09;6267815;22;20335;-50
2021/08/13 08:43:15;;;;;;;9.23;5.65;;;;;;;26.20;nan;102079.72;6267991;22;20323;-52
2021/08/13 08:45:41;;;;;;;6.68;5.75;;;;;;;26.54;nan;102082.84;6266101;22;20133;-49
2021/08/13 08:48:09;;;;;;;7.85;6.03;;;;;;;26.96;nan;102075.69;6265077;22;20253;-49
2021/08/13 08:50:37;;;;;;;11.43;5.93;;;;;;;27.23;nan;102071.72;6267995;22;20004;-52
2021/08/13 08:53:08;;;;;;;7.32;5.70;;;;;;;27.44;nan;102077.31;6267460;22;20003;-50
2021/08/13 08:55:34;;;;;;;8.77;5.65;;;;;;;27.10;nan;102079.03;6240195;22;20004;-53
2021/08/13 08:58:02;;;;;;;6.72;5.50;;;;;;;27.14;nan;102079.22;6266682;22;20031;-50
2021/08/13 09:00:27;;;;;;;6.20;5.25;;;;;;;26.94;nan;102072.44;6267065;22;19996;-48
2021/08/13 09:02:54;;;;;;;8.27;5.60;;;;;;;27.17;nan;102076.63;6266790;22;20097;-50
2021/08/13 09:05:20;;;;;;;7.70;5.55;;;;;;;27.28;nan;102080.59;6267896;22;20356;-51
2021/08/13 09:07:46;;;;;;;7.03;6.15;;;;;;;27.46;nan;102075.84;6267944;22;20006;-49
2021/08/13 09:10:12;;;;;;;6.75;5.25;;;;;;;27.63;nan;102069.47;6267964;22;20031;-51
2021/08/13 09:12:39;;;;;;;7.30;5.43;;;;;;;27.39;nan;102075.56;6267045;22;20351;-52
2021/08/13 09:15:24;;;;;;;6.38;5.15;;;;;;;27.46;nan;102081.34;6267620;22;20231;-50
2021/08/13 09:18:09;;;;;;;7.45;5.70;;;;;;;27.65;nan;102076.28;6267483;22;20440;-53
2021/08/13 09:20:42;;;;;;;6.20;4.68;;;;;;;28.05;nan;102072.31;6267403;22;20008;-52
2021/08/13 09:23:09;;;;;;;7.90;5.33;;;;;;;27.97;nan;102068.47;6267087;22;20042;-51
2021/08/13 09:25:34;;;;;;;18.60;4.90;;;;;;;28.16;nan;102071.56;6266929;22;20004;-52
2021/08/13 09:28:00;;;;;;;6.95;5.15;;;;;;;28.32;nan;102071.81;6266624;22;19999;-49
2021/08/13 09:30:27;;;;;;;7.57;4.65;;;;;;;28.41;nan;102072.56;6265443;22;20643;-49
2021/08/13 09:33:07;;;;;;;7.10;5.32;;;;;;;28.65;nan;102065.53;6267195;22;20340;-52
2021/08/13 09:35:37;;;;;;;5.07;4.68;;;;;;;28.89;nan;102065.63;6266630;22;20467;-50
2021/08/13 09:38:12;;;;;;;6.88;4.60;;;;;;;28.97;nan;102066.69;6265589;22;20631;-50
2021/08/13 09:40:40;;;;;;;6.85;4.90;;;;;;;29.11;nan;102070.75;6265104;22;20006;-53
2021/08/13 09:43:06;;;;;;;5.43;4.80;;;;;;;29.30;nan;102059.16;6265530;22;20012;-53
2021/08/13 09:45:32;;;;;;;6.32;4.82;;;;;;;29.47;nan;102066.44;6267117;22;20004;-52
2021/08/13 09:47:57;;;;;;;5.43;4.40;;;;;;;29.54;nan;102055.63;6266918;22;20074;-51
2021/08/13 09:50:40;;;;;;;5.22;4.30;;;;;;;29.72;nan;102053.41;6267106;22;20451;-52
2021/08/13 09:53:12;;;;;;;8.43;5.07;;;;;;;29.81;nan;102056.88;6267496;22;20003;-53
2021/08/13 09:55:39;;;;;;;8.88;4.80;;;;;;;29.82;nan;102054.91;6266336;22;20003;-50
2021/08/13 09:58:05;;;;;;;5.22;4.53;;;;;;;29.84;nan;102058.94;6266061;22;20007;-51
2021/08/13 10:00:45;;;;;;;8.05;4.70;;;;;;;29.89;nan;102066.19;6267784;22;20030;-52
2021/08/13 10:03:11;;;;;;;4.50;3.92;;;;;;;29.92;nan;102066.28;6267515;22;20058;-52
2021/08/13 10:05:37;;;;;;;11.52;4.28;;;;;;;29.97;nan;102066.03;6239352;22;20007;-51
2021/08/13 10:08:04;;;;;;;4.47;4.05;;;;;;;29.75;nan;102059.06;6265346;22;20098;-52
2021/08/13 10:10:38;;;;;;;6.55;4.45;;;;;;;29.55;nan;102054.47;6266923;22;20007;-50
2021/08/13 10:13:06;;;;;;;4.43;3.95;;;;;;;29.73;nan;102041.22;6240109;22;20003;-50
2021/08/13 10:15:37;;;;;;;6.18;4.15;;;;;;;29.82;nan;102038.34;6267075;22;20027;-52
2021/08/13 10:18:08;;;;;;;4.95;4.45;;;;;;;29.67;nan;102043.41;6266322;22;20455;-52
2021/08/13 10:20:43;;;;;;;4.95;4.32;;;;;;;29.97;nan;102032.06;6266542;22;19999;-55
2021/08/13 10:23:10;;;;;;;4.95;4.15;;;;;;;30.07;nan;102037.94;6266673;22;20355;-52
2021/08/13 10:25:36;;;;;;;7.32;4.22;;;;;;;30.05;nan;102045.78;6265880;22;20007;-52
2021/08/13 10:28:03;;;;;;;7.50;4.25;;;;;;;30.21;nan;102045.06;6265751;22;20003;-51
2021/08/13 10:30:28;;;;;;;8.98;4.20;;;;;;;30.19;nan;102044.63;6238612;22;20007;-49
2021/08/13 10:32:57;;;;;;;4.53;4.05;;;;;;;30.24;nan;102039.63;6267042;22;20103;-49
2021/08/13 10:35:35;;;;;;;6.90;4.00;;;;;;;30.41;nan;102038.53;6266500;22;20340;-50
2021/08/13 10:38:02;;;;;;;12.10;4.50;;;;;;;30.58;nan;102026.34;6266098;22;20060;-50
2021/08/13 10:40:30;;;;;;;5.95;3.78;;;;;;;30.52;nan;102031.34;6264047;22;20007;-51
2021/08/13 10:42:58;;;;;;;5.85;3.97;;;;;;;30.62;nan;102030.03;6260233;22;20137;-50
2021/08/13 10:45:28;;;;;;;7.20;3.45;;;;;;;30.40;nan;102031.41;6264658;22;20078;-49
2021/08/13 10:48:06;;;;;;;4.40;3.72;;;;;;;29.99;nan;102029.78;6237949;22;20407;-51
2021/08/13 10:50:32;;;;;;;4.55;3.42;;;;;;;30.35;nan;102031.66;6265524;22;20012;-50
2021/08/13 10:52:57;;;;;;;5.22;3.65;;;;;;;30.41;nan;102023.91;6265626;22;20007;-52
2021/08/13 10:55:53;;;;;;;3.95;3.45;;;;;;;30.67;nan;102019.50;6263520;22;20011;-49
2021/08/13 10:58:48;;;;;;;4.47;3.30;;;;;;;30.90;nan;102021.72;6261457;22;20057;-50
2021/08/13 11:01:18;;;;;;;4.57;3.47;;;;;;;30.68;nan;102017.56;6244345;22;20027;-51
2021/08/13 11:04:04;;;;;;;5.72;3.88;;;;;;;30.48;nan;102016.59;6264062;22;20003;-50
2021/08/13 11:06:35;;;;;;;3.97;3.40;;;;;;;30.59;nan;102019.66;6263357;22;20097;-49
2021/08/13 11:09:07;;;;;;;4.22;3.45;;;;;;;30.55;nan;102018.75;6265341;22;20413;-50
2021/08/13 11:11:54;;;;;;;5.25;3.58;;;;;;;30.62;nan;102024.50;6265324;22;20420;-52
2021/08/13 11:14:25;;;;;;;4.75;3.67;;;;;;;30.63;nan;102009.53;6264841;22;20136;-52
2021/08/13 11:16:51;;;;;;;8.35;4.70;;;;;;;30.74;nan;102007.84;6263914;22;20011;-52
2021/08/13 11:19:19;;;;;;;4.85;3.42;;;;;;;30.84;nan;102010.06;6262562;22;20051;-53
2021/08/13 11:21:50;;;;;;;5.38;4.45;;;;;;;31.18;nan;102007.78;6264249;22;20011;-48
2021/08/13 11:24:18;;;;;;;5.07;4.25;;;;;;;31.29;nan;102005.28;6265551;22;19999;-52
2021/08/13 11:26:50;;;;;;;4.90;4.28;;;;;;;31.54;nan;101993.63;6266008;22;20325;-49
2021/08/13 11:29:28;;;;;;;4.63;3.17;;;;;;;30.91;nan;102001.97;6266238;22;20062;-51
2021/08/13 11:31:57;;;;;;;9.20;3.95;;;;;;;31.50;nan;101997.47;6265890;22;20325;-52
2021/08/13 11:34:52;;;;;;;4.38;3.55;;;;;;;31.76;nan;102003.22;6238379;22;20011;-53
2021/08/13 11:37:41;;;;;;;6.30;4.03;;;;;;;31.72;nan;101998.75;6264236;22;20010;-53
2021/08/13 11:40:12;;;;;;;4.53;3.55;;;;;;;31.97;nan;101994.59;6265926;22;20313;-51
2021/08/13 11:42:46;;;;;;;5.15;4.20;;;;;;;32.10;nan;101987.72;6265361;22;20250;-52